Time;durP1;ratioP1;P1;durP2;ratioP2;P2;SDS_P1;SDS_P2;PMS_P1;PMS_P2;Temp;Humidity;BMP_temperature;BMP_pressure;BME280_temperature;BME280_humidity;BME280_pressure;Samples;Min_cycle;Max_cycle;Signal;HPM_P1;HPM_P2
2023/04/12 00:01:46;;;;;;;;;;;;;;;;;;5094315;28;19908;-67
2023/04/12 00:04:14;;;;;;;;;;;;;;;;;;5094807;28;19912;-68
2023/04/12 00:06:40;;;;;;;;;;;;;;;;;;5076538;28;19958;-68
2023/04/12 00:09:07;;;;;;;;;;;;;;;;;;5094129;28;19920;-68
2023/04/12 00:11:33;;;;;;;;;;;;;;;;;;5076387;28;20356;-68
2023/04/12 00:13:59;;;;;;;;;;;;;;;;;;5094629;28;19908;-67
2023/04/12 00:16:25;;;;;;;;;;;;;;;;;;5094102;28;19958;-67
2023/04/12 00:18:51;;;;;;;;;;;;;;;;;;5094094;28;20260;-67
2023/04/12 00:21:18;;;;;;;;;;;;;;;;;;5094462;28;20329;-68
2023/04/12 00:23:44;;;;;;;;;;;;;;;;;;5094016;28;20276;-68
2023/04/12 00:26:10;;;;;;;;;;;;;;;;;;5094513;28;19915;-68
2023/04/12 00:28:36;;;;;;;;;;;;;;;;;;5093852;28;19916;-68
2023/04/12 00:31:02;;;;;;;;;;;;;;;;;;5094618;28;19908;-68
2023/04/12 00:33:28;;;;;;;;;;;;;;;;;;5094290;28;19962;-67
2023/04/12 00:35:54;;;;;;;;;;;;;;;;;;5093810;28;20003;-68
2023/04/12 00:38:20;;;;;;;;;;;;;;;;;;5094260;28;19908;-68
2023/04/12 00:40:46;;;;;;;;;;;;;;;;;;5094248;28;19909;-68
2023/04/12 00:43:17;;;;;;;;;;;;;;;;;;5093725;28;19912;-68
2023/04/12 00:45:43;;;;;;;;;;;;;;;;;;5094460;28;20378;-68
2023/04/12 00:48:09;;;;;;;;;;;;;;;;;;5094054;28;19916;-69
2023/04/12 00:50:35;;;;;;;;;;;;;;;;;;5093642;28;20303;-68
2023/04/12 00:53:02;;;;;;;;;;;;;;;;;;5075802;28;19930;-68
2023/04/12 00:55:28;;;;;;;;;;;;;;;;;;5093942;28;20265;-68
2023/04/12 00:57:53;;;;;;;;;;;;;;;;;;5093628;28;19954;-69
2023/04/12 01:00:20;;;;;;;;;;;;;;;;;;5093963;28;19912;-69
2023/04/12 01:02:47;;;;;;;;;;;;;;;;;;5093837;28;19914;-68
2023/04/12 01:05:13;;;;;;;;;;;;;;;;;;5093455;28;19954;-69
2023/04/12 01:07:43;;;;;;;;;;;;;;;;;;5075410;28;19945;-68
2023/04/12 01:10:09;;;;;;;;;;;;;;;;;;5075664;28;20284;-68
2023/04/12 01:12:36;;;;;;;;;;;;;;;;;;5093422;28;19912;-68
2023/04/12 01:15:02;;;;;;;;;;;;;;;;;;5093805;28;19991;-68
2023/04/12 01:17:28;;;;;;;;;;;;;;;;;;5093691;28;19999;-68
2023/04/12 01:19:56;;;;;;;;;;;;;;;;;;5075265;28;19991;-68
2023/04/12 01:22:22;;;;;;;;;;;;;;;;;;5093938;28;19908;-68
2023/04/12 01:24:48;;;;;;;;;;;;;;;;;;5093254;28;19908;-68
2023/04/12 01:27:15;;;;;;;;;;;;;;;;;;5093630;28;20318;-67
2023/04/12 01:29:41;;;;;;;;;;;;;;;;;;5076853;28;19916;-67
2023/04/12 01:32:06;;;;;;;;;;;;;;;;;;5097303;28;19916;-67
2023/04/12 01:34:32;;;;;;;;;;;;;;;;;;5097624;28;19908;-67
2023/04/12 01:36:58;;;;;;;;;;;;;;;;;;5097536;28;19950;-67
2023/04/12 01:39:24;;;;;;;;;;;;;;;;;;5078964;28;19912;-67
2023/04/12 01:41:50;;;;;;;;;;;;;;;;;;5097514;28;19908;-67
2023/04/12 01:44:16;;;;;;;;;;;;;;;;;;5097422;28;19908;-67
2023/04/12 01:46:42;;;;;;;;;;;;;;;;;;5096954;28;19915;-67
2023/04/12 01:49:08;;;;;;;;;;;;;;;;;;5097348;28;19968;-69
2023/04/12 01:51:34;;;;;;;;;;;;;;;;;;5097373;28;19912;-68
2023/04/12 01:54:00;;;;;;;;;;;;;;;;;;5096967;28;19908;-68
2023/04/12 01:56:26;;;;;;;;;;;;;;;;;;5097285;28;19945;-68
2023/04/12 01:58:52;;;;;;;;;;;;;;;;;;5097328;28;20395;-68
2023/04/12 02:01:18;;;;;;;;;;;;;;;;;;5096794;28;20232;-68
2023/04/12 02:03:44;;;;;;;;;;;;;;;;;;5097638;28;20317;-69
2023/04/12 02:06:10;;;;;;;;;;;;;;;;;;5097068;28;20342;-68
2023/04/12 02:08:36;;;;;;;;;;;;;;;;;;5096869;28;20284;-69
2023/04/12 02:11:02;;;;;;;;;;;;;;;;;;5079046;28;19938;-68
2023/04/12 02:13:28;;;;;;;;;;;;;;;;;;5096879;28;19908;-68
2023/04/12 02:15:54;;;;;;;;;;;;;;;;;;5096540;28;19951;-68
2023/04/12 02:18:20;;;;;;;;;;;;;;;;;;5097045;28;20001;-68
2023/04/12 02:20:46;;;;;;;;;;;;;;;;;;5096801;28;19932;-68
2023/04/12 02:23:12;;;;;;;;;;;;;;;;;;5096307;28;19959;-67
2023/04/12 02:25:40;;;;;;;;;;;;;;;;;;5096694;28;19916;-68
2023/04/12 02:28:06;;;;;;;;;;;;;;;;;;5096368;28;19978;-68
2023/04/12 02:30:32;;;;;;;;;;;;;;;;;;5096591;28;19966;-69
2023/04/12 02:32:58;;;;;;;;;;;;;;;;;;5096591;28;19915;-69
2023/04/12 02:35:24;;;;;;;;;;;;;;;;;;5096216;28;19942;-68
2023/04/12 02:37:53;;;;;;;;;;;;;;;;;;5096411;28;19969;-67
2023/04/12 02:40:19;;;;;;;;;;;;;;;;;;5095949;28;20375;-68
2023/04/12 02:42:45;;;;;;;;;;;;;;;;;;5096202;28;19955;-68
2023/04/12 02:45:11;;;;;;;;;;;;;;;;;;5096350;28;19935;-68
2023/04/12 02:47:37;;;;;;;;;;;;;;;;;;5078087;28;19912;-68
2023/04/12 02:50:03;;;;;;;;;;;;;;;;;;5095798;28;19974;-68
2023/04/12 02:52:29;;;;;;;;;;;;;;;;;;5096563;28;19999;-68
2023/04/12 02:54:55;;;;;;;;;;;;;;;;;;5078021;28;19917;-67
2023/04/12 02:57:22;;;;;;;;;;;;;;;;;;5095992;28;20376;-68
2023/04/12 02:59:48;;;;;;;;;;;;;;;;;;5077906;28;20368;-68
2023/04/12 03:02:14;;;;;;;;;;;;;;;;;;5077823;28;19915;-68
2023/04/12 03:04:40;;;;;;;;;;;;;;;;;;5095598;28;19912;-68
2023/04/12 03:07:06;;;;;;;;;;;;;;;;;;5095711;28;19973;-67
2023/04/12 03:09:33;;;;;;;;;;;;;;;;;;5095822;28;19978;-68
2023/04/12 03:11:59;;;;;;;;;;;;;;;;;;5095396;28;20033;-68
2023/04/12 03:14:25;;;;;;;;;;;;;;;;;;5077613;28;19957;-68
2023/04/12 03:16:52;;;;;;;;;;;;;;;;;;5095965;28;20482;-67
2023/04/12 03:19:18;;;;;;;;;;;;;;;;;;5095214;28;19908;-67
2023/04/12 03:21:44;;;;;;;;;;;;;;;;;;5095580;28;20298;-67
2023/04/12 03:24:10;;;;;;;;;;;;;;;;;;5095440;28;19915;-67
2023/04/12 03:26:36;;;;;;;;;;;;;;;;;;5095057;28;19908;-68
2023/04/12 03:29:07;;;;;;;;;;;;;;;;;;5095335;28;19996;-68
2023/04/12 03:31:33;;;;;;;;;;;;;;;;;;5094996;28;19909;-68
2023/04/12 03:33:59;;;;;;;;;;;;;;;;;;5095839;28;19915;-67
2023/04/12 03:36:28;;;;;;;;;;;;;;;;;;5077148;28;19912;-67
2023/04/12 03:38:54;;;;;;;;;;;;;;;;;;5094799;28;19912;-67
2023/04/12 03:41:20;;;;;;;;;;;;;;;;;;5095176;28;20351;-67
2023/04/12 03:43:46;;;;;;;;;;;;;;;;;;5095294;28;19915;-67
2023/04/12 03:46:14;;;;;;;;;;;;;;;;;;5094503;28;19908;-67
2023/04/12 03:48:40;;;;;;;;;;;;;;;;;;5095005;28;19955;-67
2023/04/12 03:51:06;;;;;;;;;;;;;;;;;;5076791;28;19975;-67
2023/04/12 03:53:32;;;;;;;;;;;;;;;;;;5093675;28;19908;-67
2023/04/12 03:55:58;;;;;;;;;;;;;;;;;;5076661;28;20263;-67
2023/04/12 03:58:24;;;;;;;;;;;;;;;;;;5094839;28;20300;-67
2023/04/12 04:00:50;;;;;;;;;;;;;;;;;;5094588;28;20277;-68
2023/04/12 04:03:16;;;;;;;;;;;;;;;;;;5094913;28;19909;-68
2023/04/12 04:05:42;;;;;;;;;;;;;;;;;;5094820;28;20435;-69
2023/04/12 04:08:08;;;;;;;;;;;;;;;;;;5094237;28;20296;-68
2023/04/12 04:10:34;;;;;;;;;;;;;;;;;;5094486;28;19951;-67
2023/04/12 04:13:00;;;;;;;;;;;;;;;;;;5093670;28;19958;-69
2023/04/12 04:15:26;;;;;;;;;;;;;;;;;;5076018;28;19908;-68
2023/04/12 04:17:52;;;;;;;;;;;;;;;;;;5094635;28;19991;-68
2023/04/12 04:20:18;;;;;;;;;;;;;;;;;;5094679;28;20356;-68
2023/04/12 04:22:46;;;;;;;;;;;;;;;;;;5094093;28;20400;-69
2023/04/12 04:25:13;;;;;;;;;;;;;;;;;;5094840;28;19908;-68
2023/04/12 04:27:39;;;;;;;;;;;;;;;;;;5093951;28;20088;-68
2023/04/12 04:30:05;;;;;;;;;;;;;;;;;;5094389;28;19923;-69
2023/04/12 04:32:31;;;;;;;;;;;;;;;;;;5094621;28;19908;-68
2023/04/12 04:35:00;;;;;;;;;;;;;;;;;;5093846;28;19923;-68
2023/04/12 04:37:26;;;;;;;;;;;;;;;;;;5094173;28;19908;-67
2023/04/12 04:39:52;;;;;;;;;;;;;;;;;;5094271;28;20008;-68
2023/04/12 04:42:18;;;;;;;;;;;;;;;;;;5093597;28;19908;-67
2023/04/12 04:44:44;;;;;;;;;;;;;;;;;;5094051;28;19994;-68
2023/04/12 04:47:10;;;;;;;;;;;;;;;;;;5094130;28;19912;-68
2023/04/12 04:49:36;;;;;;;;;;;;;;;;;;5093490;28;19916;-68
2023/04/12 04:52:03;;;;;;;;;;;;;;;;;;5094029;28;19908;-68
2023/04/12 04:54:29;;;;;;;;;;;;;;;;;;5094011;28;19908;-68
2023/04/12 04:56:56;;;;;;;;;;;;;;;;;;5093594;28;19908;-67
2023/04/12 04:59:22;;;;;;;;;;;;;;;;;;5075847;28;20294;-67
2023/04/12 05:01:48;;;;;;;;;;;;;;;;;;5093957;28;19908;-68
2023/04/12 05:04:14;;;;;;;;;;;;;;;;;;5093492;28;19953;-68
2023/04/12 05:06:40;;;;;;;;;;;;;;;;;;5093854;28;19908;-70
2023/04/12 05:09:06;;;;;;;;;;;;;;;;;;5075513;28;19924;-69
2023/04/12 05:11:32;;;;;;;;;;;;;;;;;;5093337;28;19950;-69
2023/04/12 05:13:58;;;;;;;;;;;;;;;;;;5093596;28;19962;-68
2023/04/12 05:16:24;;;;;;;;;;;;;;;;;;5094246;28;20340;-67
2023/04/12 05:18:50;;;;;;;;;;;;;;;;;;5089633;28;20350;-68
2023/04/12 05:21:16;;;;;;;;;;;;;;;;;;5093293;28;19940;-70
2023/04/12 05:23:42;;;;;;;;;;;;;;;;;;5075012;28;19908;-70
2023/04/12 05:26:08;;;;;;;;;;;;;;;;;;5092717;28;19954;-68
2023/04/12 05:28:34;;;;;;;;;;;;;;;;;;5091611;28;20365;-66
2023/04/12 05:31:00;;;;;;;;;;;;;;;;;;5078387;28;19965;-68
2023/04/12 05:33:26;;;;;;;;;;;;;;;;;;5080697;28;19916;-66
2023/04/12 05:35:52;;;;;;;;;;;;;;;;;;5086288;28;19933;-64
2023/04/12 05:38:18;;;;;;;;;;;;;;;;;;5087633;28;19907;-65
2023/04/12 05:40:44;;;;;;;;;;;;;;;;;;5089252;28;19929;-65
2023/04/12 05:43:13;;;;;;;;;;;;;;;;;;5090164;28;19967;-65
2023/04/12 05:45:39;;;;;;;;;;;;;;;;;;5087746;28;19940;-65
2023/04/12 05:48:05;;;;;;;;;;;;;;;;;;5079637;28;19924;-65
2023/04/12 05:50:31;;;;;;;;;;;;;;;;;;5065095;28;19923;-65
2023/04/12 05:52:57;;;;;;;;;;;;;;;;;;5069355;28;19956;-65
2023/04/12 05:55:23;;;;;;;;;;;;;;;;;;5077039;28;19939;-66
2023/04/12 05:57:50;;;;;;;;;;;;;;;;;;5083672;28;19913;-65
2023/04/12 06:00:17;;;;;;;;;;;;;;;;;;5084689;28;19912;-65
2023/04/12 06:02:43;;;;;;;;;;;;;;;;;;5094087;28;19912;-65
2023/04/12 06:05:10;;;;;;;;;;;;;;;;;;5089171;28;19912;-66
2023/04/12 06:07:36;;;;;;;;;;;;;;;;;;5091407;28;19942;-64
2023/04/12 06:10:02;;;;;;;;;;;;;;;;;;5072271;28;19925;-66
2023/04/12 06:12:28;;;;;;;;;;;;;;;;;;5091188;28;20376;-66
2023/04/12 06:14:54;;;;;;;;;;;;;;;;;;5091748;28;20011;-66
2023/04/12 06:17:20;;;;;;;;;;;;;;;;;;5095905;28;19943;-66
2023/04/12 06:19:46;;;;;;;;;;;;;;;;;;5094713;28;20321;-65
2023/04/12 06:22:12;;;;;;;;;;;;;;;;;;5094310;28;20307;-65
2023/04/12 06:24:38;;;;;;;;;;;;;;;;;;5092892;28;20311;-65
2023/04/12 06:27:04;;;;;;;;;;;;;;;;;;5085100;28;19908;-67
2023/04/12 06:29:30;;;;;;;;;;;;;;;;;;5088537;28;20290;-67
2023/04/12 06:31:59;;;;;;;;;;;;;;;;;;5086123;28;20051;-67
2023/04/12 06:34:25;;;;;;;;;;;;;;;;;;5094280;28;19913;-67
2023/04/12 06:36:51;;;;;;;;;;;;;;;;;;5094011;28;19914;-66
2023/04/12 06:39:17;;;;;;;;;;;;;;;;;;5070604;28;20406;-66
2023/04/12 06:41:43;;;;;;;;;;;;;;;;;;5073312;28;20284;-66
2023/04/12 06:44:09;;;;;;;;;;;;;;;;;;5086963;28;19912;-66
2023/04/12 06:46:35;;;;;;;;;;;;;;;;;;5086360;28;19923;-67
2023/04/12 06:49:01;;;;;;;;;;;;;;;;;;5094227;28;19916;-66
2023/04/12 06:51:27;;;;;;;;;;;;;;;;;;5092957;28;19916;-66
2023/04/12 06:53:53;;;;;;;;;;;;;;;;;;5090837;28;19914;-66
2023/04/12 06:56:19;;;;;;;;;;;;;;;;;;5090383;28;20345;-66
2023/04/12 06:58:45;;;;;;;;;;;;;;;;;;5092607;28;19916;-65
2023/04/12 07:01:13;;;;;;;;;;;;;;;;;;5090686;28;20399;-66
2023/04/12 07:03:39;;;;;;;;;;;;;;;;;;5091352;28;19912;-67
2023/04/12 07:06:05;;;;;;;;;;;;;;;;;;5093703;28;20291;-66
2023/04/12 07:08:31;;;;;;;;;;;;;;;;;;5092082;28;19985;-65
2023/04/12 07:10:57;;;;;;;;;;;;;;;;;;5092752;28;20256;-66
2023/04/12 07:13:23;;;;;;;;;;;;;;;;;;5093018;28;19916;-67
2023/04/12 07:15:49;;;;;;;;;;;;;;;;;;5085634;28;19912;-68
2023/04/12 07:18:15;;;;;;;;;;;;;;;;;;5077940;28;19921;-65
2023/04/12 07:20:41;;;;;;;;;;;;;;;;;;5079193;28;19915;-67
2023/04/12 07:23:07;;;;;;;;;;;;;;;;;;5092298;28;19909;-64
2023/04/12 07:25:33;;;;;;;;;;;;;;;;;;5083714;28;19913;-66
2023/04/12 07:27:59;;;;;;;;;;;;;;;;;;5077011;28;20497;-66
2023/04/12 07:30:25;;;;;;;;;;;;;;;;;;5076650;28;20470;-67
2023/04/12 07:32:51;;;;;;;;;;;;;;;;;;5092961;28;20375;-65
2023/04/12 07:35:17;;;;;;;;;;;;;;;;;;5091332;28;19931;-66
2023/04/12 07:37:43;;;;;;;;;;;;;;;;;;5080863;28;19935;-66
2023/04/12 07:40:09;;;;;;;;;;;;;;;;;;5090370;28;19912;-67
2023/04/12 07:42:35;;;;;;;;;;;;;;;;;;5089184;28;19919;-65
2023/04/12 07:45:01;;;;;;;;;;;;;;;;;;5073223;28;19909;-65
2023/04/12 07:47:27;;;;;;;;;;;;;;;;;;5080545;28;19916;-66
2023/04/12 07:49:54;;;;;;;;;;;;;;;;;;5069974;28;19913;-64
2023/04/12 07:52:20;;;;;;;;;;;;;;;;;;5070641;28;19919;-66
2023/04/12 07:54:46;;;;;;;;;;;;;;;;;;5072042;28;19977;-64
2023/04/12 07:57:12;;;;;;;;;;;;;;;;;;5083423;28;19916;-65
2023/04/12 08:01:23;;;;;;;;;;;;;;;;;;5086760;27;20440;-65
2023/04/12 08:05:52;;;;;;;;;;;;;;;;;;5079102;28;19925;-65
2023/04/12 08:08:18;;;;;;;;;;;;;;;;;;5086475;28;19959;-66
2023/04/12 08:10:44;;;;;;;;;;;;;;;;;;5079318;28;20235;-66
2023/04/12 08:13:10;;;;;;;;;;;;;;;;;;5087389;28;20415;-65
2023/04/12 08:15:36;;;;;;;;;;;;;;;;;;5086585;28;20319;-65
2023/04/12 08:18:02;;;;;;;;;;;;;;;;;;5087415;28;20280;-66
2023/04/12 08:20:28;;;;;;;;;;;;;;;;;;5085862;28;19908;-65
2023/04/12 08:22:55;;;;;;;;;;;;;;;;;;5084858;28;19912;-66
2023/04/12 08:25:21;;;;;;;;;;;;;;;;;;5084720;28;19920;-65
2023/04/12 08:27:47;;;;;;;;;;;;;;;;;;5085838;28;19922;-65
2023/04/12 08:35:04;;;;;;;;;;;;;;;;;;5132132;27;20002;-65
2023/04/12 08:37:30;;;;;;;;;;;;;;;;;;5128327;27;19911;-65
2023/04/12 08:42:13;;;;;;;;;;;;;;;;;;4471802;27;17371762;-64
2023/04/12 08:46:24;;;;;;;;;;;;;;;;;;5095611;27;19931;-66
2023/04/12 08:48:53;;;;;;;;;;;;;;;;;;5085992;28;20295;-65
2023/04/12 08:53:40;;;;;;;;;;;;;;;;;;5079072;27;19917;-66
2023/04/12 08:56:06;;;;;;;;;;;;;;;;;;5056763;28;19948;-65
2023/04/12 08:58:33;;;;;;;;;;;;;;;;;;5088552;28;20443;-66
2023/04/12 09:02:41;;;;;;;;;;;;;;;;;;5132182;27;19983;-67
2023/04/12 09:05:08;;;;;;;;;;;;;;;;;;5127037;27;19915;-66
2023/04/12 09:07:34;;;;;;;;;;;;;;;;;;5145524;27;19914;-66
2023/04/12 09:10:28;;;;;;;;;;;;;;;;;;5124864;27;19916;-67
2023/04/12 09:12:55;;;;;;;;;;;;;;;;;;5123922;28;20010;-66
2023/04/12 09:18:06;;;;;;;;;;;;;;;;;;5084039;27;20518;-66
2023/04/12 09:20:32;;;;;;;;;;;;;;;;;;5082960;28;19983;-65
2023/04/12 09:22:58;;;;;;;;;;;;;;;;;;5080177;28;19916;-64
2023/04/12 09:25:24;;;;;;;;;;;;;;;;;;5078170;28;20266;-64
2023/04/12 09:28:17;;;;;;;;;;;;;;;;;;5143910;27;19916;-64
2023/04/12 09:30:43;;;;;;;;;;;;;;;;;;5144135;27;19911;-64
2023/04/12 09:33:09;;;;;;;;;;;;;;;;;;5118781;27;19914;-64
2023/04/12 09:35:35;;;;;;;;;;;;;;;;;;5105131;28;20554;-65
2023/04/12 09:38:01;;;;;;;;;;;;;;;;;;5105603;28;19976;-64
2023/04/12 09:40:33;;;;;;;;;;;;;;;;;;5125160;28;19934;-65
2023/04/12 09:44:29;;;;;;;;;;;;;;;;;;5143609;27;19923;-65
2023/04/12 09:46:57;;;;;;;;;;;;;;;;;;5146434;27;19956;-64
2023/04/12 09:52:05;;;;;;;;;;;;;;;;;;5148369;27;19915;-64
2023/04/12 09:54:32;;;;;;;;;;;;;;;;;;5149037;27;19922;-64
2023/04/12 09:56:58;;;;;;;;;;;;;;;;;;5128699;27;20393;-64
2023/04/12 09:59:51;;;;;;;;;;;;;;;;;;5053500;27;2120490;-63
2023/04/12 10:02:17;;;;;;;;;;;;;;;;;;5121634;28;20245;-63
2023/04/12 10:04:43;;;;;;;;;;;;;;;;;;5127661;28;19908;-63
2023/04/12 10:07:09;;;;;;;;;;;;;;;;;;5127273;28;19961;-64
2023/04/12 10:12:52;;;;;;;;;;;;;;;;;;5080983;27;20341;-63
2023/04/12 10:15:20;;;;;;;;;;;;;;;;;;5065846;28;19913;-64
2023/04/12 10:17:46;;;;;;;;;;;;;;;;;;5064665;28;19970;-64
2023/04/12 10:24:42;;;;;;;;;;;;;;;;;;5105631;27;19922;-65
2023/04/12 10:28:08;;;;;;;;;;;;;;;;;;5085967;27;19923;-67
2023/04/12 10:31:31;;;;;;;;;;;;;;;;;;5128970;27;20362;-66
2023/04/12 10:33:57;;;;;;;;;;;;;;;;;;5129027;28;19922;-64
2023/04/12 10:36:23;;;;;;;;;;;;;;;;;;5129221;28;19912;-64
2023/04/12 10:39:23;;;;;;;;;;;;;;;;;;5089353;28;19927;-69
2023/04/12 10:43:15;;;;;;;;;;;;;;;;;;5086335;27;19916;-64
2023/04/12 10:45:41;;;;;;;;;;;;;;;;;;5085491;28;20360;-66
2023/04/12 10:50:12;;;;;;;;;;;;;;;;;;5047270;28;20304;-63
2023/04/12 10:53:09;;;;;;;;;;;;;;;;;;5087463;27;19916;-64
2023/04/12 10:56:21;;;;;;;;;;;;;;;;;;5086626;27;19916;-64
2023/04/12 10:58:47;;;;;;;;;;;;;;;;;;5085085;28;19919;-63
2023/04/12 11:01:17;;;;;;;;;;;;;;;;;;5084926;28;19919;-64
2023/04/12 11:03:43;;;;;;;;;;;;;;;;;;5083739;28;19990;-65
2023/04/12 11:06:09;;;;;;;;;;;;;;;;;;5085253;28;19916;-64
2023/04/12 11:08:35;;;;;;;;;;;;;;;;;;5086515;28;19925;-63
2023/04/12 11:11:30;;;;;;;;;;;;;;;;;;5086342;27;20454;-65
2023/04/12 11:13:58;;;;;;;;;;;;;;;;;;5087405;28;19913;-65
2023/04/12 11:18:25;;;;;;;;;;;;;;;;;;5087298;28;19916;-65
2023/04/12 11:20:56;;;;;;;;;;;;;;;;;;5087601;28;20011;-64
2023/04/12 11:25:10;;;;;;;;;;;;;;;;;;5087766;27;19917;-65
2023/04/12 11:27:41;;;;;;;;;;;;;;;;;;5082607;28;19912;-65
2023/04/12 11:30:09;;;;;;;;;;;;;;;;;;5088079;28;19966;-67
2023/04/12 11:35:48;;;;;;;;;;;;;;;;;;5089182;27;19923;-65
2023/04/12 11:38:23;;;;;;;;;;;;;;;;;;5090117;28;19947;-66
2023/04/12 11:40:54;;;;;;;;;;;;;;;;;;5090244;28;19916;-65
2023/04/12 11:43:28;;;;;;;;;;;;;;;;;;5087938;28;19991;-65
2023/04/12 11:45:57;;;;;;;;;;;;;;;;;;5087531;28;19912;-66
2023/04/12 11:48:28;;;;;;;;;;;;;;;;;;5089096;28;19944;-65
2023/04/12 11:50:57;;;;;;;;;;;;;;;;;;5089320;28;19908;-65
2023/04/12 11:53:28;;;;;;;;;;;;;;;;;;5089085;28;20392;-66
2023/04/12 12:01:18;;;;;;;;;;;;;;;;;;5151769;27;20444;-64
2023/04/12 12:03:44;;;;;;;;;;;;;;;;;;5149490;27;19964;-65
2023/04/12 12:06:15;;;;;;;;;;;;;;;;;;5129442;27;19911;-65
2023/04/12 12:10:13;;;;;;;;;;;;;;;;;;4628067;27;14223732;-65
2023/04/12 12:12:43;;;;;;;;;;;;;;;;;;5131048;28;19960;-66
2023/04/12 12:15:09;;;;;;;;;;;;;;;;;;5131022;28;19908;-66
2023/04/12 12:19:52;;;;;;;;;;;;;;;;;;4587708;27;15366759;-65
2023/04/12 12:24:48;;;;;;;;;;;;;;;;;;5092053;27;20368;-65
2023/04/12 12:28:27;;;;;;;;;;;;;;;;;;5056619;27;2388608;-64
2023/04/12 12:31:00;;;;;;;;;;;;;;;;;;5131210;28;19919;-64
2023/04/12 12:33:27;;;;;;;;;;;;;;;;;;5112185;28;19943;-64
2023/04/12 12:36:44;;;;;;;;;;;;;;;;;;4507498;27;17566569;-63
2023/04/12 12:41:01;;;;;;;;;;;;;;;;;;5043959;27;2489595;-64
2023/04/12 12:46:27;;;;;;;;;;;;;;;;;;4861434;27;7650329;-67
2023/04/12 12:48:55;;;;;;;;;;;;;;;;;;5131147;28;20001;-66
2023/04/12 12:51:22;;;;;;;;;;;;;;;;;;5131198;28;19914;-65
2023/04/12 12:53:53;;;;;;;;;;;;;;;;;;5113307;28;20256;-66
2023/04/12 12:56:20;;;;;;;;;;;;;;;;;;5110423;28;20004;-69
2023/04/12 12:58:46;;;;;;;;;;;;;;;;;;5110165;28;20410;-69
2023/04/12 13:02:24;;;;;;;;;;;;;;;;;;5088494;27;19916;-69
2023/04/12 13:04:50;;;;;;;;;;;;;;;;;;5089439;28;20387;-69
2023/04/12 13:07:16;;;;;;;;;;;;;;;;;;5090456;28;19916;-69
2023/04/12 13:09:42;;;;;;;;;;;;;;;;;;5089394;28;19913;-69
2023/04/12 13:13:48;;;;;;;;;;;;;;;;;;5090052;27;19923;-69
2023/04/12 13:16:14;;;;;;;;;;;;;;;;;;5090106;28;20424;-69
2023/04/12 13:22:23;;;;;;;;;;;;;;;;;;5090727;27;19934;-69
2023/04/12 13:24:49;;;;;;;;;;;;;;;;;;5091099;28;19912;-69
2023/04/12 13:27:15;;;;;;;;;;;;;;;;;;5091103;28;19915;-69
2023/04/12 13:29:41;;;;;;;;;;;;;;;;;;5090909;28;19908;-68
2023/04/12 13:32:08;;;;;;;;;;;;;;;;;;5091268;28;20265;-68
2023/04/12 13:34:33;;;;;;;;;;;;;;;;;;5089887;28;19908;-69
2023/04/12 13:37:00;;;;;;;;;;;;;;;;;;5089385;28;19915;-69
2023/04/12 13:39:45;;;;;;;;;;;;;;;;;;5091926;27;19916;-68
2023/04/12 13:42:11;;;;;;;;;;;;;;;;;;5091157;28;20003;-68
2023/04/12 13:44:37;;;;;;;;;;;;;;;;;;5090672;28;20280;-68
2023/04/12 13:47:03;;;;;;;;;;;;;;;;;;5091079;28;19962;-68
2023/04/12 13:50:41;;;;;;;;;;;;;;;;;;5152351;27;20394;-68
2023/04/12 13:53:07;;;;;;;;;;;;;;;;;;5152742;27;19911;-68
2023/04/12 13:55:33;;;;;;;;;;;;;;;;;;5152904;27;20436;-68
2023/04/12 13:57:59;;;;;;;;;;;;;;;;;;5152207;27;19915;-67
2023/04/12 14:00:26;;;;;;;;;;;;;;;;;;5152522;27;19951;-68
2023/04/12 14:02:52;;;;;;;;;;;;;;;;;;5152587;27;19914;-67
2023/04/12 14:09:04;;;;;;;;;;;;;;;;;;5091881;27;19919;-68
2023/04/12 14:12:01;;;;;;;;;;;;;;;;;;5091015;27;20299;-68
2023/04/12 14:14:38;;;;;;;;;;;;;;;;;;5091489;27;19922;-69
2023/04/12 14:17:04;;;;;;;;;;;;;;;;;;5091251;28;19999;-68
2023/04/12 14:19:30;;;;;;;;;;;;;;;;;;5090764;28;19914;-69
2023/04/12 14:23:52;;;;;;;;;;;;;;;;;;5091456;27;20274;-69
2023/04/12 14:26:18;;;;;;;;;;;;;;;;;;5090784;28;19918;-69
2023/04/12 14:28:44;;;;;;;;;;;;;;;;;;5091197;28;19908;-67
2023/04/12 14:31:10;;;;;;;;;;;;;;;;;;5091108;28;19938;-67
2023/04/12 14:35:40;;;;;;;;;;;;;;;;;;5091217;27;19917;-68
2023/04/12 14:38:07;;;;;;;;;;;;;;;;;;5091311;28;19919;-68
2023/04/12 14:40:33;;;;;;;;;;;;;;;;;;5090774;28;19912;-68
2023/04/12 14:43:54;;;;;;;;;;;;;;;;;;5091448;28;20407;-68
2023/04/12 14:48:46;;;;;;;;;;;;;;;;;;5111128;27;19916;-68
2023/04/12 14:51:12;;;;;;;;;;;;;;;;;;5111387;28;19919;-68
2023/04/12 14:53:38;;;;;;;;;;;;;;;;;;5110978;28;19908;-68
2023/04/12 14:56:04;;;;;;;;;;;;;;;;;;5111427;28;19908;-67
2023/04/12 14:58:30;;;;;;;;;;;;;;;;;;5111406;28;19912;-67
2023/04/12 15:00:56;;;;;;;;;;;;;;;;;;5111228;28;19908;-68
2023/04/12 15:03:22;;;;;;;;;;;;;;;;;;5111396;28;20309;-68
2023/04/12 15:05:48;;;;;;;;;;;;;;;;;;5111112;28;20391;-68
2023/04/12 15:08:14;;;;;;;;;;;;;;;;;;5110767;28;19916;-68
2023/04/12 15:10:40;;;;;;;;;;;;;;;;;;5111491;28;20000;-68
2023/04/12 15:13:06;;;;;;;;;;;;;;;;;;5111143;28;20360;-68
2023/04/12 15:15:32;;;;;;;;;;;;;;;;;;5111086;28;20367;-68
2023/04/12 15:17:58;;;;;;;;;;;;;;;;;;5111139;28;19908;-68
2023/04/12 15:20:24;;;;;;;;;;;;;;;;;;5111131;28;19995;-67
2023/04/12 15:22:50;;;;;;;;;;;;;;;;;;5110642;28;20344;-69
2023/04/12 15:25:16;;;;;;;;;;;;;;;;;;5111486;28;20374;-69
2023/04/12 15:27:42;;;;;;;;;;;;;;;;;;5109441;28;19923;-69
2023/04/12 15:30:11;;;;;;;;;;;;;;;;;;5110378;28;19908;-69
2023/04/12 15:32:36;;;;;;;;;;;;;;;;;;5109557;28;19930;-69
2023/04/12 15:35:04;;;;;;;;;;;;;;;;;;5110986;28;19912;-69
2023/04/12 15:37:32;;;;;;;;;;;;;;;;;;5110223;28;19912;-67
2023/04/12 15:39:57;;;;;;;;;;;;;;;;;;5110664;28;19908;-67
2023/04/12 15:42:23;;;;;;;;;;;;;;;;;;5109228;28;19915;-67
2023/04/12 15:44:49;;;;;;;;;;;;;;;;;;5110047;28;19919;-67
2023/04/12 15:47:15;;;;;;;;;;;;;;;;;;5110112;28;19920;-68
2023/04/12 15:49:41;;;;;;;;;;;;;;;;;;5110740;28;19987;-69
2023/04/12 15:52:08;;;;;;;;;;;;;;;;;;5109934;28;19994;-67
2023/04/12 15:54:40;;;;;;;;;;;;;;;;;;5110469;28;19912;-67
2023/04/12 15:57:09;;;;;;;;;;;;;;;;;;5109931;28;19915;-68
2023/04/12 15:59:36;;;;;;;;;;;;;;;;;;5099563;28;19908;-68
2023/04/12 16:02:05;;;;;;;;;;;;;;;;;;5096708;28;19912;-69
2023/04/12 16:04:31;;;;;;;;;;;;;;;;;;5095035;28;20343;-68
2023/04/12 16:07:00;;;;;;;;;;;;;;;;;;5097098;28;19912;-68
2023/04/12 16:09:26;;;;;;;;;;;;;;;;;;5096572;28;19908;-68
2023/04/12 16:12:36;;;;;;;;;;;;;;;;;;5091211;27;19916;-68
2023/04/12 16:15:02;;;;;;;;;;;;;;;;;;5091310;28;20328;-69
2023/04/12 16:18:35;;;;;;;;;;;;;;;;;;5173430;27;20005;-68
2023/04/12 16:21:02;;;;;;;;;;;;;;;;;;5174241;27;20017;-68
2023/04/12 16:23:28;;;;;;;;;;;;;;;;;;5173908;27;19950;-69
2023/04/12 16:25:54;;;;;;;;;;;;;;;;;;5173154;27;19950;-68
2023/04/12 16:28:21;;;;;;;;;;;;;;;;;;5173438;27;19955;-69
2023/04/12 16:30:48;;;;;;;;;;;;;;;;;;5173439;27;19985;-68
2023/04/12 16:33:14;;;;;;;;;;;;;;;;;;5154318;27;19907;-68
2023/04/12 16:35:42;;;;;;;;;;;;;;;;;;5154670;27;20271;-68
2023/04/12 16:40:28;;;;;;;;;;;;;;;;;;5091180;28;19912;-69
2023/04/12 16:42:54;;;;;;;;;;;;;;;;;;5091319;28;19912;-68
2023/04/12 16:47:16;;;;;;;;;;;;;;;;;;5091363;27;19922;-68
2023/04/12 16:50:34;;;;;;;;;;;;;;;;;;5111930;27;20337;-69
2023/04/12 16:54:25;;;;;;;;;;;;;;;;;;5131821;27;19916;-68
2023/04/12 16:58:38;;;;;;;;;;;;;;;;;;5091417;27;20403;-68
2023/04/12 17:01:03;;;;;;;;;;;;;;;;;;5091339;28;20318;-68
2023/04/12 17:03:29;;;;;;;;;;;;;;;;;;5089952;28;19916;-69
2023/04/12 17:05:55;;;;;;;;;;;;;;;;;;5091512;28;19912;-68
2023/04/12 17:09:07;;;;;;;;;;;;;;;;;;5152486;27;19919;-68
2023/04/12 17:11:34;;;;;;;;;;;;;;;;;;5152820;27;20009;-67
2023/04/12 17:13:59;;;;;;;;;;;;;;;;;;5152709;27;19908;-68
2023/04/12 17:16:25;;;;;;;;;;;;;;;;;;5152332;27;19953;-68
2023/04/12 17:18:51;;;;;;;;;;;;;;;;;;5152635;27;19918;-68
2023/04/12 17:21:18;;;;;;;;;;;;;;;;;;5133603;27;19908;-68
2023/04/12 17:23:44;;;;;;;;;;;;;;;;;;5134261;27;19924;-68
2023/04/12 17:26:10;;;;;;;;;;;;;;;;;;5132075;27;20285;-69
2023/04/12 17:32:22;;;;;;;;;;;;;;;;;;5091727;28;19916;-69
2023/04/12 17:35:26;;;;;;;;;;;;;;;;;;5091292;27;19912;-69
2023/04/12 17:37:52;;;;;;;;;;;;;;;;;;5089898;28;19916;-68
2023/04/12 17:41:35;;;;;;;;;;;;;;;;;;5091169;27;20384;-68
2023/04/12 17:44:01;;;;;;;;;;;;;;;;;;5091000;28;19912;-68
2023/04/12 17:46:27;;;;;;;;;;;;;;;;;;5091276;28;20007;-68
2023/04/12 17:52:02;;;;;;;;;;;;;;;;;;5092003;27;19919;-68
2023/04/12 17:54:28;;;;;;;;;;;;;;;;;;5090679;28;19912;-67
2023/04/12 17:56:56;;;;;;;;;;;;;;;;;;5091047;28;20403;-66
2023/04/12 17:59:22;;;;;;;;;;;;;;;;;;5091029;28;19947;-68
2023/04/12 18:01:48;;;;;;;;;;;;;;;;;;5090942;28;19913;-67
2023/04/12 18:04:14;;;;;;;;;;;;;;;;;;5090735;28;19923;-68
2023/04/12 18:06:40;;;;;;;;;;;;;;;;;;5090902;28;19908;-68
2023/04/12 18:09:07;;;;;;;;;;;;;;;;;;5090833;28;20013;-68
2023/04/12 18:11:37;;;;;;;;;;;;;;;;;;5090454;28;19917;-68
2023/04/12 18:14:03;;;;;;;;;;;;;;;;;;5089339;28;19943;-67
2023/04/12 18:16:30;;;;;;;;;;;;;;;;;;5090600;28;19908;-68
2023/04/12 18:18:56;;;;;;;;;;;;;;;;;;5090233;28;19912;-68
2023/04/12 18:21:22;;;;;;;;;;;;;;;;;;5090512;28;19908;-68
2023/04/12 18:23:48;;;;;;;;;;;;;;;;;;5090500;28;20007;-68